Time;durP1;ratioP1;P1;durP2;ratioP2;P2;SDS_P1;SDS_P2;PMS_P1;PMS_P2;Temp;Humidity;BMP_temperature;BMP_pressure;BME280_temperature;BME280_humidity;BME280_pressure;Samples;Min_cycle;Max_cycle;Signal;HPM_P1;HPM_P2
2022/01/29 00:00:39;;;;;;;;;;;20.30;42.10;;;;;;5111981;27;19972;-47
2022/01/29 00:03:06;;;;;;;;;;;20.30;41.90;;;;;;5117920;27;20384;-45
2022/01/29 00:05:33;;;;;;;;;;;20.30;41.90;;;;;;5108529;27;19926;-46
2022/01/29 00:07:59;;;;;;;;;;;20.30;41.90;;;;;;5117451;27;19927;-45
2022/01/29 00:10:31;;;;;;;;;;;20.30;41.90;;;;;;5110530;27;19919;-44
2022/01/29 00:12:57;;;;;;;;;;;20.30;41.90;;;;;;5119283;27;19919;-45
2022/01/29 00:15:24;;;;;;;;;;;20.30;41.90;;;;;;5124843;27;20276;-46
2022/01/29 00:17:51;;;;;;;;;;;20.30;41.90;;;;;;5145470;27;20018;-45
2022/01/29 00:20:17;;;;;;;;;;;20.30;41.90;;;;;;5140355;27;20490;-45
2022/01/29 00:22:44;;;;;;;;;;;20.30;41.90;;;;;;5107559;27;20366;-46
2022/01/29 00:25:11;;;;;;;;;;;20.30;41.90;;;;;;5130674;27;19926;-49
2022/01/29 00:27:40;;;;;;;;;;;20.30;41.90;;;;;;5119366;27;19927;-45
2022/01/29 00:30:09;;;;;;;;;;;20.30;41.90;;;;;;5119174;27;19932;-46
2022/01/29 00:32:36;;;;;;;;;;;20.30;41.90;;;;;;5117483;27;19919;-44
2022/01/29 00:35:03;;;;;;;;;;;20.30;41.90;;;;;;5102644;27;19927;-49
2022/01/29 00:37:30;;;;;;;;;;;20.30;41.90;;;;;;5116334;27;19962;-45
2022/01/29 00:39:56;;;;;;;;;;;20.30;42.50;;;;;;5131171;27;19919;-46
2022/01/29 00:42:23;;;;;;;;;;;20.30;41.90;;;;;;5116592;27;20280;-44
2022/01/29 00:44:51;;;;;;;;;;;20.30;41.90;;;;;;5103303;27;19919;-47
2022/01/29 00:47:18;;;;;;;;;;;20.30;41.90;;;;;;5115412;27;19923;-47
2022/01/29 00:49:45;;;;;;;;;;;20.30;41.90;;;;;;5118296;27;19919;-48
2022/01/29 00:52:12;;;;;;;;;;;20.30;41.80;;;;;;5117137;27;19920;-46
2022/01/29 00:54:39;;;;;;;;;;;20.30;41.80;;;;;;5131512;27;19968;-44
2022/01/29 00:57:06;;;;;;;;;;;20.30;41.90;;;;;;5115220;27;19950;-48
2022/01/29 00:59:33;;;;;;;;;;;20.30;41.80;;;;;;5150596;27;19976;-43
2022/01/29 01:02:02;;;;;;;;;;;20.30;41.80;;;;;;5123505;27;19931;-46
2022/01/29 01:04:30;;;;;;;;;;;20.30;41.80;;;;;;5113276;27;19931;-47
2022/01/29 01:06:56;;;;;;;;;;;20.20;41.70;;;;;;5129888;27;19919;-45
2022/01/29 01:09:25;;;;;;;;;;;20.30;41.80;;;;;;5144135;27;19994;-44
2022/01/29 01:11:52;;;;;;;;;;;20.20;41.70;;;;;;5116964;27;20329;-46
2022/01/29 01:14:19;;;;;;;;;;;20.20;41.70;;;;;;5123672;27;19988;-45
2022/01/29 01:16:47;;;;;;;;;;;20.20;42.30;;;;;;5116991;27;19986;-43
2022/01/29 01:19:15;;;;;;;;;;;20.20;41.70;;;;;;5118627;27;20350;-45
2022/01/29 01:21:42;;;;;;;;;;;20.20;41.70;;;;;;5112910;27;19928;-46
2022/01/29 01:24:08;;;;;;;;;;;20.30;41.80;;;;;;5138659;27;19966;-48
2022/01/29 01:26:35;;;;;;;;;;;20.20;41.70;;;;;;5117167;27;20158;-45
2022/01/29 01:29:02;;;;;;;;;;;20.20;41.70;;;;;;5108801;27;19919;-44
2022/01/29 01:31:28;;;;;;;;;;;20.30;41.80;;;;;;5135188;27;19953;-47
2022/01/29 01:33:55;;;;;;;;;;;20.20;41.70;;;;;;5110330;27;19919;-44
2022/01/29 01:36:25;;;;;;;;;;;20.30;41.70;;;;;;5109047;27;19965;-44
2022/01/29 01:38:59;;;;;;;;;;;20.30;41.80;;;;;;5135057;27;19931;-43
2022/01/29 01:41:27;;;;;;;;;;;20.20;41.70;;;;;;5142403;27;19919;-43
2022/01/29 01:43:59;;;;;;;;;;;20.30;41.80;;;;;;5118789;27;19920;-43
2022/01/29 01:46:28;;;;;;;;;;;20.30;41.90;;;;;;5114043;27;19919;-44
2022/01/29 01:48:55;;;;;;;;;;;20.20;41.70;;;;;;5099261;27;19919;-44
2022/01/29 01:51:22;;;;;;;;;;;20.20;41.70;;;;;;5115734;27;19919;-48
2022/01/29 01:53:50;;;;;;;;;;;20.20;41.70;;;;;;5108717;27;19991;-47
2022/01/29 01:56:16;;;;;;;;;;;20.20;41.60;;;;;;5105695;27;19942;-43
2022/01/29 01:58:43;;;;;;;;;;;20.20;41.70;;;;;;5150179;27;19919;-45
2022/01/29 02:01:10;;;;;;;;;;;20.20;41.70;;;;;;5123001;27;20353;-45
2022/01/29 02:03:37;;;;;;;;;;;20.20;41.70;;;;;;5129653;27;19919;-50
2022/01/29 02:06:06;;;;;;;;;;;20.20;41.70;;;;;;5120942;27;20141;-46
2022/01/29 02:08:37;;;;;;;;;;;20.20;41.70;;;;;;5110138;27;19935;-47
2022/01/29 02:11:06;;;;;;;;;;;20.20;41.70;;;;;;5136135;27;19920;-46
2022/01/29 02:13:35;;;;;;;;;;;20.20;41.70;;;;;;5112224;28;19970;-44
2022/01/29 02:16:03;;;;;;;;;;;20.20;41.70;;;;;;5142082;27;19951;-43
2022/01/29 02:18:30;;;;;;;;;;;20.20;41.70;;;;;;5107933;28;19924;-48
2022/01/29 02:20:57;;;;;;;;;;;20.20;41.70;;;;;;5112719;27;19920;-44
2022/01/29 02:23:25;;;;;;;;;;;20.20;41.70;;;;;;5113452;27;19919;-46
2022/01/29 02:25:54;;;;;;;;;;;20.20;41.70;;;;;;5099292;27;19939;-47
2022/01/29 02:28:21;;;;;;;;;;;20.20;41.70;;;;;;5112213;28;20361;-43
2022/01/29 02:30:48;;;;;;;;;;;20.20;41.70;;;;;;5108373;27;19952;-43
2022/01/29 02:33:15;;;;;;;;;;;20.20;41.70;;;;;;5119864;27;19920;-44
2022/01/29 02:35:43;;;;;;;;;;;20.20;41.70;;;;;;5106527;27;20372;-43
2022/01/29 02:38:09;;;;;;;;;;;20.20;41.70;;;;;;5106464;28;19997;-45
2022/01/29 02:40:45;;;;;;;;;;;20.20;41.70;;;;;;5116429;27;20335;-47
2022/01/29 02:43:12;;;;;;;;;;;20.20;41.70;;;;;;5100427;28;19976;-47
2022/01/29 02:45:41;;;;;;;;;;;20.20;41.70;;;;;;5104272;27;19920;-42
2022/01/29 02:48:08;;;;;;;;;;;20.20;41.70;;;;;;5104787;28;19929;-44
2022/01/29 02:50:35;;;;;;;;;;;20.20;41.70;;;;;;5131450;27;20387;-46
2022/01/29 02:53:01;;;;;;;;;;;20.20;41.70;;;;;;5133716;28;19919;-42
2022/01/29 02:55:29;;;;;;;;;;;20.20;41.70;;;;;;5099681;27;19919;-45
2022/01/29 02:57:57;;;;;;;;;;;20.20;41.70;;;;;;5096812;28;19968;-45
2022/01/29 03:00:24;;;;;;;;;;;20.20;41.70;;;;;;5106867;27;20019;-46
2022/01/29 03:02:51;;;;;;;;;;;20.20;41.70;;;;;;5114567;28;20003;-42
2022/01/29 03:05:18;;;;;;;;;;;20.20;41.70;;;;;;5098340;28;19927;-44
2022/01/29 03:07:45;;;;;;;;;;;20.20;41.70;;;;;;5121894;27;20018;-46
2022/01/29 03:10:11;;;;;;;;;;;20.20;41.70;;;;;;5111020;28;20018;-45
2022/01/29 03:12:40;;;;;;;;;;;20.20;41.70;;;;;;5094219;28;19928;-47
2022/01/29 03:15:09;;;;;;;;;;;20.20;41.70;;;;;;5093965;28;19957;-44
2022/01/29 03:17:35;;;;;;;;;;;20.20;41.70;;;;;;5147662;27;19948;-47
2022/01/29 03:20:03;;;;;;;;;;;20.20;41.70;;;;;;5137540;27;20265;-43
2022/01/29 03:22:29;;;;;;;;;;;20.20;41.70;;;;;;5143012;27;19923;-46
2022/01/29 03:24:56;;;;;;;;;;;20.20;41.70;;;;;;5113686;28;19970;-44
2022/01/29 03:27:23;;;;;;;;;;;20.20;41.70;;;;;;5124298;28;19924;-43
2022/01/29 03:29:50;;;;;;;;;;;20.20;41.70;;;;;;5122264;28;19923;-45
2022/01/29 03:32:18;;;;;;;;;;;20.20;41.70;;;;;;5116411;28;19972;-45
2022/01/29 03:34:45;;;;;;;;;;;20.20;41.70;;;;;;5103757;28;20357;-46
2022/01/29 03:37:12;;;;;;;;;;;20.20;41.70;;;;;;5141641;27;20091;-47
2022/01/29 03:39:39;;;;;;;;;;;20.20;41.70;;;;;;5095787;28;19919;-44
2022/01/29 03:42:09;;;;;;;;;;;20.20;41.70;;;;;;5105735;28;20326;-48
2022/01/29 03:44:35;;;;;;;;;;;20.20;41.70;;;;;;5098437;28;19924;-43
2022/01/29 03:47:02;;;;;;;;;;;20.20;41.70;;;;;;5118577;27;20328;-48
2022/01/29 03:49:30;;;;;;;;;;;20.20;41.70;;;;;;5120787;28;20019;-44
2022/01/29 03:51:57;;;;;;;;;;;20.20;41.70;;;;;;5138478;27;20312;-45
2022/01/29 03:54:24;;;;;;;;;;;20.20;41.70;;;;;;5133064;27;19923;-46
2022/01/29 03:56:50;;;;;;;;;;;20.20;41.70;;;;;;5112891;27;19919;-44
2022/01/29 03:59:17;;;;;;;;;;;20.20;41.70;;;;;;5120171;27;20010;-45
2022/01/29 04:01:44;;;;;;;;;;;20.20;41.70;;;;;;5107202;27;19920;-44
2022/01/29 04:04:11;;;;;;;;;;;20.20;41.70;;;;;;5133758;27;19920;-42
2022/01/29 04:06:39;;;;;;;;;;;20.20;41.70;;;;;;5137111;27;20271;-43
2022/01/29 04:09:10;;;;;;;;;;;20.20;41.70;;;;;;5097691;28;19950;-48
2022/01/29 04:11:38;;;;;;;;;;;20.20;41.70;;;;;;5104635;27;20018;-47
2022/01/29 04:14:13;;;;;;;;;;;20.20;41.70;;;;;;5137430;27;19961;-42
2022/01/29 04:16:39;;;;;;;;;;;20.20;41.80;;;;;;5130199;27;19949;-43
2022/01/29 04:19:06;;;;;;;;;;;20.20;41.70;;;;;;5104331;27;19969;-42
2022/01/29 04:21:33;;;;;;;;;;;20.20;41.70;;;;;;5131508;27;19970;-44
2022/01/29 04:24:01;;;;;;;;;;;20.20;41.70;;;;;;5132287;27;20416;-45
2022/01/29 04:26:33;;;;;;;;;;;20.20;41.70;;;;;;5121864;27;19923;-48
2022/01/29 04:29:00;;;;;;;;;;;20.20;41.70;;;;;;5136618;27;20399;-43
2022/01/29 04:31:36;;;;;;;;;;;20.20;41.70;;;;;;5133314;27;19930;-43
2022/01/29 04:34:03;;;;;;;;;;;20.20;41.70;;;;;;5134241;27;19929;-44
2022/01/29 04:36:30;;;;;;;;;;;20.20;41.70;;;;;;5106990;27;19930;-46
2022/01/29 04:38:57;;;;;;;;;;;20.20;42.30;;;;;;5136792;27;19923;-45
2022/01/29 04:41:25;;;;;;;;;;;20.20;41.70;;;;;;5119829;27;20427;-43
2022/01/29 04:43:52;;;;;;;;;;;20.20;41.70;;;;;;5131215;27;19927;-47
2022/01/29 04:46:18;;;;;;;;;;;20.20;41.70;;;;;;5117496;27;20220;-44
2022/01/29 04:48:45;;;;;;;;;;;20.20;41.70;;;;;;5104031;27;20361;-43
2022/01/29 04:51:12;;;;;;;;;;;20.20;41.70;;;;;;5114997;27;19973;-43
2022/01/29 04:53:40;;;;;;;;;;;20.20;41.70;;;;;;5126807;27;19965;-43
2022/01/29 04:56:07;;;;;;;;;;;20.20;41.70;;;;;;5153543;27;20013;-44
2022/01/29 04:58:36;;;;;;;;;;;20.20;41.70;;;;;;5120201;27;19927;-47
2022/01/29 05:01:02;;;;;;;;;;;20.20;41.70;;;;;;5133354;27;19970;-43
2022/01/29 05:03:29;;;;;;;;;;;20.20;41.70;;;;;;5119239;27;19923;-43
2022/01/29 05:05:56;;;;;;;;;;;20.20;41.70;;;;;;5155975;27;20027;-43
2022/01/29 05:08:23;;;;;;;;;;;20.20;41.70;;;;;;5154464;27;19927;-46
2022/01/29 05:10:50;;;;;;;;;;;20.20;41.70;;;;;;5123543;27;19920;-46
2022/01/29 05:13:21;;;;;;;;;;;20.20;41.70;;;;;;5150183;27;19930;-44
2022/01/29 05:16:03;;;;;;;;;;;20.20;41.70;;;;;;5155232;27;19919;-45
2022/01/29 05:26:55;;;;;;;;;;;20.20;41.70;;;;;;5133244;27;19927;-42
2022/01/29 05:29:22;;;;;;;;;;;20.20;41.70;;;;;;5110467;27;20435;-44
2022/01/29 05:31:51;;;;;;;;;;;20.20;41.70;;;;;;5131961;27;19923;-45
2022/01/29 05:34:18;;;;;;;;;;;20.20;41.70;;;;;;5123414;27;19919;-44
2022/01/29 05:36:45;;;;;;;;;;;20.20;41.70;;;;;;5132134;27;19930;-44
2022/01/29 05:39:12;;;;;;;;;;;20.20;41.80;;;;;;5109070;27;20060;-48
2022/01/29 05:41:38;;;;;;;;;;;20.20;41.70;;;;;;5132695;27;19923;-44
2022/01/29 05:44:05;;;;;;;;;;;20.20;41.70;;;;;;5133662;27;19924;-45
2022/01/29 05:46:32;;;;;;;;;;;20.10;41.60;;;;;;5134692;27;20355;-46
2022/01/29 05:49:00;;;;;;;;;;;20.20;41.70;;;;;;5117944;27;20326;-43
2022/01/29 05:51:29;;;;;;;;;;;20.20;41.70;;;;;;5154830;27;19923;-45
2022/01/29 05:53:56;;;;;;;;;;;20.20;41.80;;;;;;5110135;27;19920;-46
2022/01/29 05:56:23;;;;;;;;;;;20.20;41.80;;;;;;5127009;27;19947;-46
2022/01/29 05:58:50;;;;;;;;;;;20.20;41.80;;;;;;5110304;28;19931;-44
2022/01/29 06:01:17;;;;;;;;;;;20.20;41.80;;;;;;5121966;27;19931;-44
2022/01/29 06:03:43;;;;;;;;;;;20.20;41.80;;;;;;5109707;28;19920;-50
2022/01/29 06:06:12;;;;;;;;;;;20.20;41.80;;;;;;5128673;27;19976;-47
2022/01/29 06:08:39;;;;;;;;;;;20.20;41.80;;;;;;5117229;27;19923;-44
2022/01/29 06:11:05;;;;;;;;;;;20.20;41.80;;;;;;5133953;27;20434;-49
2022/01/29 06:13:32;;;;;;;;;;;20.20;41.80;;;;;;5106531;27;19920;-44
2022/01/29 06:16:01;;;;;;;;;;;20.20;41.80;;;;;;5144260;27;19958;-46
2022/01/29 06:18:27;;;;;;;;;;;20.20;41.80;;;;;;5112967;27;19938;-46
2022/01/29 06:20:56;;;;;;;;;;;20.20;41.80;;;;;;5126927;27;19941;-45
2022/01/29 06:23:29;;;;;;;;;;;20.20;41.80;;;;;;5117963;27;19919;-43
2022/01/29 06:25:56;;;;;;;;;;;20.20;41.80;;;;;;5119009;27;19958;-49
2022/01/29 06:28:23;;;;;;;;;;;20.10;41.70;;;;;;5142703;27;19919;-44
2022/01/29 06:30:50;;;;;;;;;;;20.20;41.90;;;;;;5144994;27;19981;-45
2022/01/29 06:33:17;;;;;;;;;;;20.20;41.90;;;;;;5112481;27;19920;-43
2022/01/29 06:35:44;;;;;;;;;;;20.20;41.90;;;;;;5120989;27;19919;-44
2022/01/29 06:38:11;;;;;;;;;;;20.20;41.90;;;;;;5122185;27;20519;-43
2022/01/29 06:40:39;;;;;;;;;;;20.20;41.90;;;;;;5117403;27;19919;-45
2022/01/29 06:43:06;;;;;;;;;;;20.10;41.80;;;;;;5122180;27;20323;-44
2022/01/29 06:45:33;;;;;;;;;;;20.20;41.90;;;;;;5120461;27;19966;-45
2022/01/29 06:48:00;;;;;;;;;;;20.20;41.90;;;;;;5126387;27;19979;-44
2022/01/29 06:50:26;;;;;;;;;;;20.20;41.90;;;;;;5119344;27;19945;-42
2022/01/29 06:52:53;;;;;;;;;;;20.20;41.90;;;;;;5116384;28;19923;-46
2022/01/29 06:55:20;;;;;;;;;;;20.20;41.90;;;;;;5096962;27;19924;-42
2022/01/29 06:57:48;;;;;;;;;;;20.20;41.90;;;;;;5115819;28;20013;-44
2022/01/29 07:00:15;;;;;;;;;;;20.20;41.90;;;;;;5102206;27;19920;-47
2022/01/29 07:02:42;;;;;;;;;;;20.20;41.90;;;;;;5144756;27;19941;-42
2022/01/29 07:05:10;;;;;;;;;;;20.20;41.90;;;;;;5112156;28;20022;-45
2022/01/29 07:07:36;;;;;;;;;;;20.20;41.90;;;;;;5117690;27;19924;-44
2022/01/29 07:10:03;;;;;;;;;;;20.20;41.90;;;;;;5112400;28;19920;-46
2022/01/29 07:12:30;;;;;;;;;;;20.20;41.90;;;;;;5113511;28;20333;-45
2022/01/29 07:14:58;;;;;;;;;;;20.20;42.00;;;;;;5113525;28;19923;-42
2022/01/29 07:17:25;;;;;;;;;;;20.20;41.90;;;;;;5123941;27;19923;-47
2022/01/29 07:19:52;;;;;;;;;;;20.20;42.00;;;;;;5098879;28;19947;-44
2022/01/29 07:22:19;;;;;;;;;;;20.20;41.90;;;;;;5093218;28;19969;-45
2022/01/29 07:24:46;;;;;;;;;;;20.20;42.00;;;;;;5120522;28;19946;-45
2022/01/29 07:27:13;;;;;;;;;;;20.20;42.00;;;;;;5094349;28;20023;-48
2022/01/29 07:29:40;;;;;;;;;;;20.20;42.00;;;;;;5113195;28;19988;-43
2022/01/29 07:32:08;;;;;;;;;;;20.20;42.00;;;;;;5114575;28;19919;-45
2022/01/29 07:34:35;;;;;;;;;;;20.20;42.00;;;;;;5112745;28;19926;-45
2022/01/29 07:37:02;;;;;;;;;;;20.20;42.00;;;;;;5114977;28;19927;-42
2022/01/29 07:39:29;;;;;;;;;;;20.20;42.00;;;;;;5112952;27;19920;-45
2022/01/29 07:41:55;;;;;;;;;;;20.20;42.00;;;;;;5116505;27;19930;-45
2022/01/29 07:44:22;;;;;;;;;;;20.20;42.00;;;;;;5112828;27;20037;-43
2022/01/29 07:46:49;;;;;;;;;;;20.20;42.00;;;;;;5117027;27;20314;-45
2022/01/29 07:49:17;;;;;;;;;;;20.20;42.00;;;;;;5128437;27;19928;-45
2022/01/29 07:51:44;;;;;;;;;;;20.20;42.00;;;;;;5097233;28;19930;-45
2022/01/29 07:54:11;;;;;;;;;;;20.20;42.00;;;;;;5127403;27;19930;-44
2022/01/29 07:56:38;;;;;;;;;;;20.20;42.00;;;;;;5118924;27;19973;-44
2022/01/29 07:59:05;;;;;;;;;;;20.20;42.00;;;;;;5109494;27;19968;-44
2022/01/29 08:01:31;;;;;;;;;;;20.20;42.00;;;;;;5114883;27;19924;-44
2022/01/29 08:03:58;;;;;;;;;;;20.20;42.10;;;;;;5118043;27;19926;-45
2022/01/29 08:06:29;;;;;;;;;;;20.20;42.00;;;;;;5120425;27;20400;-41
2022/01/29 08:08:56;;;;;;;;;;;20.20;42.10;;;;;;5136350;27;20379;-42
2022/01/29 08:11:22;;;;;;;;;;;20.20;42.00;;;;;;5098640;28;19949;-42
2022/01/29 08:13:49;;;;;;;;;;;20.20;42.10;;;;;;5136630;27;20204;-46
2022/01/29 08:16:16;;;;;;;;;;;20.20;42.10;;;;;;5110994;28;20495;-43
2022/01/29 08:18:45;;;;;;;;;;;20.20;42.10;;;;;;5098273;27;19926;-47
2022/01/29 08:21:12;;;;;;;;;;;20.20;42.10;;;;;;5116958;27;19926;-48
2022/01/29 08:23:40;;;;;;;;;;;20.20;42.10;;;;;;5132517;27;19919;-45
2022/01/29 08:26:07;;;;;;;;;;;20.20;42.10;;;;;;5112785;27;20029;-44
2022/01/29 08:28:33;;;;;;;;;;;20.20;42.10;;;;;;5112499;27;19967;-45
2022/01/29 08:31:00;;;;;;;;;;;20.20;42.10;;;;;;5146857;27;19946;-45
2022/01/29 08:33:27;;;;;;;;;;;20.20;42.10;;;;;;5113643;27;20320;-42
2022/01/29 08:35:54;;;;;;;;;;;20.20;42.10;;;;;;5114767;27;19925;-44
2022/01/29 08:38:20;;;;;;;;;;;20.20;42.10;;;;;;5112710;27;19958;-42
2022/01/29 08:40:48;;;;;;;;;;;20.20;42.10;;;;;;5114833;27;19976;-44
2022/01/29 08:43:15;;;;;;;;;;;20.20;42.70;;;;;;5133463;27;19993;-43
2022/01/29 08:45:42;;;;;;;;;;;20.20;42.10;;;;;;5115222;27;19974;-42
2022/01/29 08:48:09;;;;;;;;;;;20.20;42.10;;;;;;5108526;27;19931;-44
2022/01/29 08:50:35;;;;;;;;;;;20.20;42.10;;;;;;5105499;27;20014;-42
2022/01/29 08:53:02;;;;;;;;;;;20.20;42.10;;;;;;5108183;27;20013;-42
2022/01/29 08:55:36;;;;;;;;;;;20.20;42.10;;;;;;5149916;27;20010;-47
2022/01/29 08:58:04;;;;;;;;;;;20.20;42.10;;;;;;5127950;27;19984;-41
2022/01/29 09:00:31;;;;;;;;;;;20.20;42.10;;;;;;5112000;27;19927;-45
2022/01/29 09:02:58;;;;;;;;;;;20.20;42.20;;;;;;5113582;27;20022;-47
2022/01/29 09:05:24;;;;;;;;;;;20.20;42.10;;;;;;5109846;27;19919;-42
2022/01/29 09:07:51;;;;;;;;;;;20.20;42.10;;;;;;5091509;27;19920;-45
2022/01/29 09:10:18;;;;;;;;;;;20.20;42.10;;;;;;5129479;27;19931;-47
2022/01/29 09:12:45;;;;;;;;;;;20.20;42.20;;;;;;5106044;27;19919;-46
2022/01/29 09:15:13;;;;;;;;;;;20.20;42.20;;;;;;5104611;27;19991;-42
2022/01/29 09:17:41;;;;;;;;;;;20.20;42.20;;;;;;5111618;27;19923;-42
2022/01/29 09:20:08;;;;;;;;;;;20.20;42.20;;;;;;5112010;27;19919;-43
2022/01/29 09:22:35;;;;;;;;;;;20.20;42.20;;;;;;5130206;27;19932;-42
2022/01/29 09:25:02;;;;;;;;;;;20.20;42.20;;;;;;5119040;27;19971;-45
2022/01/29 09:27:29;;;;;;;;;;;20.20;42.20;;;;;;5152898;27;19919;-44
2022/01/29 09:29:56;;;;;;;;;;;20.20;42.20;;;;;;5118785;27;20006;-43
2022/01/29 09:32:24;;;;;;;;;;;20.20;42.20;;;;;;5120964;27;19926;-43
2022/01/29 09:34:51;;;;;;;;;;;20.20;42.20;;;;;;5103844;27;20006;-42
2022/01/29 09:37:18;;;;;;;;;;;20.20;42.20;;;;;;5114097;27;19923;-42
2022/01/29 09:39:45;;;;;;;;;;;20.20;42.20;;;;;;5122350;27;19987;-42
2022/01/29 09:42:12;;;;;;;;;;;20.20;42.20;;;;;;5103600;27;20451;-44
2022/01/29 09:44:38;;;;;;;;;;;20.20;42.20;;;;;;5115279;27;19926;-46
2022/01/29 09:47:06;;;;;;;;;;;20.20;42.20;;;;;;5121116;27;20327;-43
2022/01/29 09:49:34;;;;;;;;;;;20.20;42.20;;;;;;5122079;27;19919;-43
2022/01/29 09:52:01;;;;;;;;;;;20.20;42.20;;;;;;5155002;27;19924;-44
2022/01/29 09:54:27;;;;;;;;;;;20.20;42.20;;;;;;5135664;27;19969;-43
2022/01/29 09:56:54;;;;;;;;;;;20.20;42.20;;;;;;5121423;27;20267;-43
2022/01/29 09:59:22;;;;;;;;;;;20.20;42.20;;;;;;5121039;27;19919;-44
2022/01/29 10:01:49;;;;;;;;;;;20.20;42.30;;;;;;5102986;27;19977;-45
2022/01/29 10:04:16;;;;;;;;;;;20.20;42.30;;;;;;5116595;27;19968;-45
2022/01/29 10:06:47;;;;;;;;;;;20.20;42.30;;;;;;5136721;27;20232;-43
2022/01/29 10:09:28;;;;;;;;;;;20.20;42.30;;;;;;5106183;27;19957;-45
2022/01/29 10:11:56;;;;;;;;;;;20.20;42.30;;;;;;5115963;27;20253;-43
2022/01/29 10:14:24;;;;;;;;;;;20.20;42.30;;;;;;5126181;27;19920;-42
2022/01/29 10:16:52;;;;;;;;;;;20.20;42.30;;;;;;5110920;27;19926;-43
2022/01/29 10:19:19;;;;;;;;;;;20.20;42.30;;;;;;5113487;27;19919;-44
2022/01/29 10:21:48;;;;;;;;;;;20.20;42.30;;;;;;5130340;27;19920;-45
2022/01/29 10:24:15;;;;;;;;;;;20.20;42.30;;;;;;5116939;27;20014;-42
2022/01/29 10:26:42;;;;;;;;;;;20.20;42.30;;;;;;5120003;27;19919;-42
2022/01/29 10:29:10;;;;;;;;;;;20.20;42.30;;;;;;5128484;27;19934;-42
2022/01/29 10:31:40;;;;;;;;;;;20.20;42.30;;;;;;5134833;27;20306;-44
2022/01/29 10:34:20;;;;;;;;;;;20.20;42.20;;;;;;5108067;27;19920;-44
2022/01/29 10:37:08;;;;;;;;;;;20.20;42.30;;;;;;5126434;27;20030;-42
2022/01/29 10:39:35;;;;;;;;;;;20.20;42.30;;;;;;5101291;27;20168;-44
2022/01/29 10:42:13;;;;;;;;;;;20.20;42.30;;;;;;5116831;27;19934;-41
2022/01/29 10:44:42;;;;;;;;;;;20.20;42.30;;;;;;5132948;27;19959;-41
2022/01/29 10:47:09;;;;;;;;;;;20.30;42.40;;;;;;5106394;28;19934;-43
2022/01/29 10:49:37;;;;;;;;;;;20.20;42.30;;;;;;5131843;27;19924;-43
2022/01/29 10:52:05;;;;;;;;;;;20.20;42.30;;;;;;5128674;27;19965;-45
2022/01/29 10:54:33;;;;;;;;;;;20.20;42.30;;;;;;5098800;28;19976;-41
2022/01/29 10:57:00;;;;;;;;;;;20.30;42.40;;;;;;5101694;28;19979;-41
2022/01/29 10:59:27;;;;;;;;;;;20.20;42.30;;;;;;5106593;28;19923;-44
2022/01/29 11:01:55;;;;;;;;;;;20.30;42.40;;;;;;5129491;27;20023;-45
2022/01/29 11:04:22;;;;;;;;;;;20.20;42.30;;;;;;5136347;27;20425;-45
2022/01/29 11:06:49;;;;;;;;;;;20.20;42.30;;;;;;5105792;28;19923;-45
2022/01/29 11:09:17;;;;;;;;;;;20.30;42.40;;;;;;5133132;27;20427;-43
2022/01/29 11:11:45;;;;;;;;;;;20.30;42.40;;;;;;5116830;27;20284;-55
2022/01/29 11:14:12;;;;;;;;;;;20.30;42.70;;;;;;5123138;27;19920;-48
2022/01/29 11:16:39;;;;;;;;;;;20.20;42.90;;;;;;5114581;27;20466;-48
2022/01/29 11:19:06;;;;;;;;;;;20.20;42.90;;;;;;5112997;27;19920;-53
2022/01/29 11:21:32;;;;;;;;;;;20.20;42.80;;;;;;5104539;27;20268;-48
2022/01/29 11:23:59;;;;;;;;;;;20.10;42.60;;;;;;5141702;27;19924;-47
2022/01/29 11:26:27;;;;;;;;;;;20.10;42.60;;;;;;5093841;28;19957;-45
2022/01/29 11:29:05;;;;;;;;;;;20.10;42.60;;;;;;5098818;27;19920;-47
2022/01/29 11:31:33;;;;;;;;;;;20.10;42.60;;;;;;5109543;27;19934;-46
2022/01/29 11:34:18;;;;;;;;;;;20.00;42.50;;;;;;5099071;27;19923;-45
2022/01/29 11:37:01;;;;;;;;;;;20.00;42.50;;;;;;5097596;27;19930;-45
2022/01/29 11:39:29;;;;;;;;;;;20.00;42.50;;;;;;5101052;27;20394;-45
2022/01/29 11:42:12;;;;;;;;;;;20.00;42.50;;;;;;5109541;27;19919;-43
2022/01/29 11:44:40;;;;;;;;;;;20.00;42.50;;;;;;5107443;27;20011;-48
2022/01/29 11:47:22;;;;;;;;;;;20.00;42.50;;;;;;5112265;27;20208;-45
2022/01/29 11:49:49;;;;;;;;;;;20.00;42.50;;;;;;5140672;27;19946;-52
2022/01/29 11:52:21;;;;;;;;;;;20.00;42.50;;;;;;5102554;27;19919;-51
2022/01/29 11:54:58;;;;;;;;;;;20.00;42.50;;;;;;5118254;27;19935;-48
2022/01/29 11:57:24;;;;;;;;;;;20.00;42.50;;;;;;5095621;27;20031;-49
2022/01/29 11:59:52;;;;;;;;;;;20.00;42.50;;;;;;5108511;27;19986;-48
2022/01/29 12:02:36;;;;;;;;;;;20.00;42.50;;;;;;5106096;27;19967;-49
2022/01/29 12:05:15;;;;;;;;;;;20.00;42.50;;;;;;5108659;27;19935;-47
2022/01/29 12:08:00;;;;;;;;;;;20.00;42.50;;;;;;5105513;28;19923;-45
2022/01/29 12:10:35;;;;;;;;;;;20.00;42.50;;;;;;5135902;27;19920;-49
2022/01/29 12:13:08;;;;;;;;;;;20.00;42.50;;;;;;5124098;27;20380;-49
2022/01/29 12:15:37;;;;;;;;;;;20.00;42.50;;;;;;5092577;27;19924;-50
2022/01/29 12:18:08;;;;;;;;;;;20.00;42.50;;;;;;5099837;28;20003;-46
2022/01/29 12:20:35;;;;;;;;;;;20.00;42.40;;;;;;5092880;27;19924;-50
2022/01/29 12:23:02;;;;;;;;;;;20.00;42.40;;;;;;5129019;27;19995;-48
2022/01/29 12:25:29;;;;;;;;;;;20.00;42.60;;;;;;5093125;27;19927;-45
2022/01/29 12:27:57;;;;;;;;;;;20.00;42.40;;;;;;5092290;27;19931;-46
2022/01/29 12:30:24;;;;;;;;;;;20.00;42.40;;;;;;5110782;27;19992;-48
2022/01/29 12:32:56;;;;;;;;;;;20.00;42.40;;;;;;5094697;27;19941;-45
2022/01/29 12:35:31;;;;;;;;;;;20.00;42.40;;;;;;5109966;27;19995;-47
2022/01/29 12:37:58;;;;;;;;;;;19.90;42.30;;;;;;5109690;27;19971;-44
2022/01/29 12:40:26;;;;;;;;;;;20.00;42.40;;;;;;5090467;27;19927;-53
2022/01/29 12:46:09;;;;;;;;;;;19.90;42.30;;;;;;5093646;27;19919;-48
2022/01/29 12:48:38;;;;;;;;;;;20.00;42.40;;;;;;5100132;27;20034;-46
2022/01/29 12:51:06;;;;;;;;;;;19.90;42.40;;;;;;5107597;27;20395;-46
2022/01/29 12:53:33;;;;;;;;;;;20.00;42.50;;;;;;5096616;27;19962;-43
2022/01/29 12:56:00;;;;;;;;;;;20.00;42.50;;;;;;5111724;27;19935;-50
2022/01/29 12:58:28;;;;;;;;;;;20.00;42.50;;;;;;5129111;27;19928;-46
2022/01/29 13:01:01;;;;;;;;;;;20.00;42.50;;;;;;5104180;27;20333;-48
2022/01/29 13:03:28;;;;;;;;;;;20.00;42.50;;;;;;5103234;27;19932;-43
2022/01/29 13:05:59;;;;;;;;;;;20.00;42.50;;;;;;5100882;27;19955;-46
2022/01/29 13:08:26;;;;;;;;;;;20.00;42.50;;;;;;5099097;27;19930;-47
2022/01/29 13:10:53;;;;;;;;;;;20.00;42.50;;;;;;5102726;27;19924;-44
2022/01/29 13:13:26;;;;;;;;;;;20.00;42.50;;;;;;5082644;27;20017;-43
2022/01/29 13:15:53;;;;;;;;;;;20.00;42.50;;;;;;5101705;27;19920;-49
2022/01/29 13:18:19;;;;;;;;;;;20.00;42.50;;;;;;5096133;27;19924;-46
2022/01/29 13:20:46;;;;;;;;;;;20.00;42.50;;;;;;5094878;28;19974;-45
2022/01/29 13:23:14;;;;;;;;;;;20.00;42.50;;;;;;5120728;27;20113;-48
2022/01/29 13:25:41;;;;;;;;;;;20.10;42.60;;;;;;5101173;27;19952;-46
2022/01/29 13:28:09;;;;;;;;;;;20.10;42.70;;;;;;5096990;27;19920;-48
2022/01/29 13:30:36;;;;;;;;;;;20.10;42.70;;;;;;5097925;27;19924;-44
2022/01/29 13:33:06;;;;;;;;;;;20.10;42.80;;;;;;5090634;27;20962;-46
2022/01/29 13:35:34;;;;;;;;;;;20.10;42.80;;;;;;5094492;27;19919;-47
2022/01/29 13:38:14;;;;;;;;;;;20.10;42.90;;;;;;5111136;27;19982;-44
2022/01/29 13:40:43;;;;;;;;;;;20.10;42.90;;;;;;5099804;27;19980;-46
2022/01/29 13:43:10;;;;;;;;;;;20.10;43.00;;;;;;5126269;27;19926;-47
2022/01/29 13:45:46;;;;;;;;;;;20.10;43.00;;;;;;5095720;28;19931;-48
2022/01/29 13:48:14;;;;;;;;;;;20.10;43.00;;;;;;5092791;27;20014;-44
2022/01/29 13:50:43;;;;;;;;;;;20.20;43.20;;;;;;5100700;27;20249;-50
2022/01/29 13:53:10;;;;;;;;;;;20.20;43.40;;;;;;5107171;27;19955;-47
2022/01/29 13:55:37;;;;;;;;;;;20.20;43.50;;;;;;5107084;27;19970;-46
2022/01/29 13:58:06;;;;;;;;;;;20.20;43.50;;;;;;5118808;27;19919;-44
2022/01/29 14:00:52;;;;;;;;;;;20.20;43.50;;;;;;5113006;27;20006;-43
2022/01/29 14:03:19;;;;;;;;;;;20.20;43.40;;;;;;5088157;28;20337;-43
2022/01/29 14:05:46;;;;;;;;;;;20.20;43.40;;;;;;5094783;27;19919;-49
2022/01/29 14:08:17;;;;;;;;;;;20.20;43.40;;;;;;5091843;27;19923;-43
2022/01/29 14:10:44;;;;;;;;;;;20.20;43.30;;;;;;5096487;27;19936;-49
2022/01/29 14:13:14;;;;;;;;;;;20.20;43.30;;;;;;5104148;28;19996;-44
2022/01/29 14:15:47;;;;;;;;;;;20.20;43.30;;;;;;5104168;27;19943;-43
2022/01/29 14:18:15;;;;;;;;;;;20.20;43.30;;;;;;5131613;27;20246;-44
2022/01/29 14:20:41;;;;;;;;;;;20.20;43.40;;;;;;5117715;27;20462;-43
2022/01/29 14:23:08;;;;;;;;;;;20.20;43.40;;;;;;5102294;28;19919;-43
2022/01/29 14:25:36;;;;;;;;;;;20.20;43.40;;;;;;5122952;27;20351;-43
2022/01/29 14:28:06;;;;;;;;;;;20.20;43.30;;;;;;5097782;28;19925;-43
2022/01/29 14:30:34;;;;;;;;;;;20.20;43.30;;;;;;5102105;28;19930;-43
2022/01/29 14:33:01;;;;;;;;;;;20.20;43.30;;;;;;5121530;27;20006;-43